createdAt,value
2022-09-14T00:00:29.474Z,436.02
2022-09-14T00:02:55.902Z,436.50
2022-09-14T00:05:22.478Z,433.23
2022-09-14T00:07:48.762Z,424.17
2022-09-14T00:10:15.077Z,425.42
2022-09-14T00:12:41.952Z,420.42
2022-09-14T00:15:08.333Z,418.92
2022-09-14T00:17:34.646Z,418.10
2022-09-14T00:20:01.093Z,414.58
2022-09-14T00:22:27.543Z,411.30
2022-09-14T00:24:53.856Z,406.63
2022-09-14T00:27:20.160Z,409.58
2022-09-14T00:29:46.842Z,406.90
2022-09-14T00:32:13.807Z,405.70
2022-09-14T00:34:40.432Z,391.05
2022-09-14T00:37:06.744Z,387.33
2022-09-14T00:39:33.204Z,394.63
2022-09-14T00:41:59.537Z,387.02
2022-09-14T00:44:25.909Z,385.33
2022-09-14T00:46:52.610Z,385.02
2022-09-14T00:49:18.930Z,386.55
2022-09-14T00:51:45.197Z,374.83
2022-09-14T00:54:11.494Z,375.30
2022-09-14T00:56:37.800Z,370.73
2022-09-14T00:59:04.166Z,378.55
2022-09-14T01:01:30.551Z,364.67
2022-09-14T01:03:56.903Z,367.08
2022-09-14T01:06:23.971Z,368.77
2022-09-14T01:08:50.293Z,357.08
2022-09-14T01:11:16.662Z,356.38
2022-09-14T01:13:43.404Z,354.65
2022-09-14T01:16:09.721Z,353.67
2022-09-14T01:18:36.119Z,356.35
2022-09-14T01:21:02.501Z,348.15
2022-09-14T01:23:29.258Z,349.92
2022-09-14T01:25:55.614Z,337.80
2022-09-14T01:28:22.248Z,336.58
2022-09-14T01:30:48.592Z,339.20
2022-09-14T01:33:15.062Z,331.50
2022-09-14T01:35:41.413Z,331.48
2022-09-14T01:38:07.834Z,327.20
2022-09-14T01:40:34.233Z,329.27
2022-09-14T01:43:00.597Z,322.77
2022-09-14T01:45:26.955Z,327.33
2022-09-14T01:47:53.466Z,316.05
2022-09-14T01:50:19.740Z,318.23
2022-09-14T01:52:46.069Z,322.60
2022-09-14T01:55:12.324Z,313.25
2022-09-14T01:57:38.609Z,319.15
2022-09-14T02:00:04.897Z,303.08
2022-09-14T02:02:31.493Z,310.60
2022-09-14T02:04:58.089Z,297.88
2022-09-14T02:07:24.429Z,300.80
2022-09-14T02:09:50.845Z,300.00
2022-09-14T02:12:17.779Z,302.90
2022-09-14T02:14:44.309Z,294.70
2022-09-14T02:17:10.806Z,290.08
2022-09-14T02:19:37.233Z,293.90
2022-09-14T02:22:03.548Z,289.40
2022-09-14T02:24:30.245Z,281.48
2022-09-14T02:26:56.538Z,280.40
2022-09-14T02:29:23.268Z,273.70
2022-09-14T02:31:49.593Z,274.58
2022-09-14T02:34:15.965Z,275.25
2022-09-14T02:36:42.438Z,269.20
2022-09-14T02:39:08.886Z,269.05
2022-09-14T02:41:35.152Z,265.23
2022-09-14T02:44:01.527Z,262.75
2022-09-14T02:46:28.023Z,261.98
2022-09-14T02:48:54.343Z,255.23
2022-09-14T02:51:20.588Z,261.48
2022-09-14T02:53:47.029Z,256.42
2022-09-14T02:56:13.273Z,254.45
2022-09-14T02:58:39.862Z,252.30
2022-09-14T03:01:06.270Z,248.43
2022-09-14T03:03:35.644Z,240.88
2022-09-14T03:06:02.398Z,243.95
2022-09-14T03:08:28.874Z,241.85
2022-09-14T03:10:55.192Z,242.27
2022-09-14T03:13:21.635Z,234.88
2022-09-14T03:15:47.998Z,232.68
2022-09-14T03:18:14.697Z,233.73
2022-09-14T03:20:41.125Z,233.98
2022-09-14T03:23:07.380Z,228.45
2022-09-14T03:25:33.869Z,224.77
2022-09-14T03:28:00.522Z,229.90
2022-09-14T03:30:27.060Z,222.18
2022-09-14T03:32:53.544Z,220.20
2022-09-14T03:35:19.996Z,214.45
2022-09-14T03:37:46.430Z,215.25
2022-09-14T03:40:12.746Z,214.77
2022-09-14T03:42:39.068Z,216.70
2022-09-14T03:45:05.363Z,212.63
2022-09-14T03:47:31.788Z,214.13
2022-09-14T03:49:58.062Z,204.23
2022-09-14T03:52:24.378Z,208.00
2022-09-14T03:54:50.692Z,200.50
2022-09-14T03:57:17.010Z,202.52
2022-09-14T03:59:43.933Z,197.93
2022-09-14T04:02:10.607Z,200.02
2022-09-14T04:04:36.953Z,190.38
2022-09-14T04:07:03.199Z,194.90
2022-09-14T04:09:29.580Z,196.25
2022-09-14T04:11:56.844Z,191.40
2022-09-14T04:14:23.158Z,188.32
2022-09-14T04:16:49.449Z,183.55
2022-09-14T04:19:15.847Z,182.98
2022-09-14T04:21:42.154Z,183.15
2022-09-14T04:24:15.030Z,182.27
2022-09-14T04:26:42.214Z,179.63
2022-09-14T04:29:08.530Z,181.40
2022-09-14T04:31:34.839Z,175.40
2022-09-14T04:34:01.220Z,172.45
2022-09-14T04:36:27.537Z,168.30
2022-09-14T04:38:53.910Z,167.63
2022-09-14T04:41:20.180Z,170.93
2022-09-14T04:43:46.486Z,151.20
2022-09-14T04:46:12.804Z,109.35
2022-09-14T04:48:39.098Z,114.22
2022-09-14T04:51:05.394Z,113.03
2022-09-14T04:53:31.713Z,95.70
2022-09-14T04:55:58.083Z,97.63
2022-09-14T04:58:24.314Z,89.80
2022-09-14T05:00:50.923Z,85.18
2022-09-14T05:03:17.316Z,81.38
2022-09-14T05:05:44.874Z,72.72
2022-09-14T05:08:11.280Z,71.18
2022-09-14T05:10:37.625Z,81.30
2022-09-14T05:13:03.940Z,76.32
2022-09-14T05:15:30.319Z,78.03
2022-09-14T05:17:56.666Z,79.90
2022-09-14T05:20:23.033Z,77.93
2022-09-14T05:22:49.282Z,79.35
2022-09-14T05:25:16.118Z,78.85
2022-09-14T05:27:42.448Z,77.40
2022-09-14T05:30:08.796Z,77.25
2022-09-14T05:32:35.073Z,77.22
2022-09-14T05:35:01.410Z,76.72
2022-09-14T05:37:27.837Z,74.50
2022-09-14T05:39:54.250Z,78.65
2022-09-14T05:42:20.699Z,76.10
2022-09-14T05:44:47.023Z,75.22
2022-09-14T05:47:13.432Z,72.40
2022-09-14T05:49:40.009Z,75.38
2022-09-14T05:52:06.401Z,73.43
2022-09-14T05:54:32.704Z,72.68
2022-09-14T05:56:58.969Z,73.18
2022-09-14T05:59:25.377Z,70.93
2022-09-14T06:01:51.725Z,72.95
2022-09-14T06:04:18.292Z,69.53
2022-09-14T06:06:52.279Z,68.78
2022-09-14T06:09:32.462Z,68.50
2022-09-14T06:11:59.519Z,67.70
2022-09-14T06:14:25.980Z,66.95
2022-09-14T06:16:52.322Z,66.20
2022-09-14T06:19:18.684Z,66.45
2022-09-14T06:21:44.974Z,63.58
2022-09-14T06:24:11.312Z,64.38
2022-09-14T06:26:37.891Z,65.53
2022-09-14T06:29:04.210Z,62.53
2022-09-14T06:31:30.526Z,65.10
2022-09-14T06:33:56.827Z,61.05
2022-09-14T06:36:23.191Z,64.10
2022-09-14T06:38:50.065Z,62.45
2022-09-14T06:41:16.580Z,60.25
2022-09-14T06:43:42.893Z,61.15
2022-09-14T06:46:09.177Z,60.47
2022-09-14T06:48:35.633Z,60.08
2022-09-14T06:51:01.958Z,58.70
2022-09-14T06:53:28.404Z,59.75
2022-09-14T06:55:55.554Z,57.33
2022-09-14T06:58:21.889Z,57.65
2022-09-14T07:00:48.240Z,57.65
2022-09-14T07:03:14.673Z,57.00
2022-09-14T07:05:41.126Z,55.20
2022-09-14T07:08:11.920Z,55.30
2022-09-14T07:10:38.742Z,54.47
2022-09-14T07:13:05.047Z,53.92
2022-09-14T07:15:32.373Z,53.92
2022-09-14T07:17:58.700Z,55.00
2022-09-14T07:20:25.005Z,53.60
2022-09-14T07:22:51.306Z,55.47
2022-09-14T07:25:17.579Z,52.03
2022-09-14T07:27:43.990Z,51.88
2022-09-14T07:30:10.368Z,51.83
2022-09-14T07:32:36.610Z,51.55
2022-09-14T07:35:02.982Z,50.67
2022-09-14T07:37:29.446Z,51.00
2022-09-14T07:39:56.121Z,49.92
2022-09-14T07:42:22.454Z,48.95
2022-09-14T07:44:49.022Z,50.78
2022-09-14T07:47:15.630Z,50.00
2022-09-14T07:49:42.294Z,48.67
2022-09-14T07:52:08.614Z,48.05
2022-09-14T07:54:35.094Z,47.88
2022-09-14T07:57:01.860Z,48.33
2022-09-14T07:59:36.959Z,46.97
2022-09-14T08:02:03.593Z,46.67
2022-09-14T08:04:29.912Z,45.85
2022-09-14T08:06:56.529Z,46.85
2022-09-14T08:09:23.266Z,44.13
2022-09-14T08:11:49.732Z,46.13
2022-09-14T08:14:16.016Z,42.95
2022-09-14T08:16:42.440Z,45.40
2022-09-14T08:19:08.905Z,43.45
2022-09-14T08:21:35.316Z,44.90
2022-09-14T08:24:01.648Z,42.65
2022-09-14T08:26:28.160Z,43.92
2022-09-14T08:28:54.538Z,42.78
2022-09-14T08:31:20.922Z,43.20
2022-09-14T08:33:47.978Z,43.17
2022-09-14T08:36:14.298Z,41.28
2022-09-14T08:38:40.627Z,41.90
2022-09-14T08:41:06.966Z,42.13
2022-09-14T08:43:33.330Z,42.33
2022-09-14T08:45:59.864Z,39.95
2022-09-14T08:48:26.250Z,40.03
2022-09-14T08:50:52.884Z,41.50
2022-09-14T08:53:19.261Z,38.70
2022-09-14T08:55:45.940Z,40.10
2022-09-14T08:58:12.537Z,39.75
2022-09-14T09:00:39.072Z,39.38
2022-09-14T09:03:05.492Z,39.67
2022-09-14T09:05:32.019Z,39.10
2022-09-14T09:07:58.524Z,38.00
2022-09-14T09:10:25.010Z,37.63
2022-09-14T09:12:51.389Z,37.15
2022-09-14T09:15:17.994Z,36.50
2022-09-14T09:17:44.458Z,37.80
2022-09-14T09:20:11.088Z,35.97
2022-09-14T09:22:37.776Z,36.08
2022-09-14T09:25:04.058Z,36.75
2022-09-14T09:27:30.368Z,36.55
2022-09-14T09:29:56.616Z,35.92
2022-09-14T09:32:23.019Z,35.58
2022-09-14T09:34:49.346Z,34.90
2022-09-14T09:37:15.596Z,34.92
2022-09-14T09:39:42.076Z,34.22
2022-09-14T09:42:08.496Z,32.33
2022-09-14T09:44:34.870Z,34.80
2022-09-14T09:47:01.234Z,34.17
2022-09-14T09:49:27.617Z,33.45
2022-09-14T09:51:53.889Z,33.42
2022-09-14T09:54:20.197Z,32.97
2022-09-14T09:56:46.485Z,31.40
2022-09-14T09:59:12.944Z,32.85
2022-09-14T10:01:39.955Z,31.58
2022-09-14T10:04:06.436Z,32.25
2022-09-14T10:06:32.756Z,30.92
2022-09-14T10:08:58.989Z,31.73
2022-09-14T10:11:25.552Z,31.85
2022-09-14T10:13:51.905Z,30.05
2022-09-14T10:16:18.283Z,30.98
2022-09-14T10:18:48.768Z,30.77
2022-09-14T10:21:15.498Z,31.58
2022-09-14T10:23:41.802Z,30.70
2022-09-14T10:26:08.133Z,31.52
2022-09-14T10:28:34.608Z,30.30
2022-09-14T10:31:00.953Z,29.95
2022-09-14T10:33:27.338Z,29.17
2022-09-14T10:35:53.631Z,30.15
2022-09-14T10:38:19.998Z,29.17
2022-09-14T10:40:46.355Z,28.48
2022-09-14T10:43:12.662Z,27.55
2022-09-14T10:45:39.045Z,28.25
2022-09-14T10:48:05.326Z,27.40
2022-09-14T10:50:31.841Z,27.63
2022-09-14T10:52:58.269Z,27.80
2022-09-14T10:55:24.904Z,27.23
2022-09-14T10:57:51.560Z,28.02
2022-09-14T11:00:17.820Z,26.33
2022-09-14T11:02:44.224Z,27.50
2022-09-14T11:05:10.719Z,26.30
2022-09-14T11:07:37.240Z,26.90
2022-09-14T11:10:03.614Z,26.05
2022-09-14T11:12:29.946Z,25.85
2022-09-14T11:14:56.953Z,25.75
2022-09-14T11:17:23.785Z,24.38
2022-09-14T11:19:50.320Z,25.58
2022-09-14T11:22:16.618Z,25.60
2022-09-14T11:24:43.008Z,24.98
2022-09-14T11:27:09.252Z,25.13
2022-09-14T11:29:35.610Z,24.50
2022-09-14T11:32:19.694Z,24.00
2022-09-14T11:34:47.073Z,25.08
2022-09-14T11:37:13.514Z,25.25
2022-09-14T11:39:39.848Z,23.77
2022-09-14T11:42:06.441Z,24.50
2022-09-14T11:44:33.114Z,23.75
2022-09-14T11:47:00.983Z,22.88
2022-09-14T11:49:27.387Z,22.75
2022-09-14T11:51:53.709Z,23.75
2022-09-14T11:54:20.073Z,23.10
2022-09-14T11:56:46.434Z,22.70
2022-09-14T11:59:13.712Z,21.15
2022-09-14T12:01:39.985Z,22.48
2022-09-14T12:04:06.786Z,21.20
2022-09-14T12:06:33.136Z,22.85
2022-09-14T12:08:59.581Z,21.25
2022-09-14T12:11:28.525Z,21.05
2022-09-14T12:13:54.905Z,21.48
2022-09-14T12:16:21.485Z,20.23
2022-09-14T12:18:48.268Z,20.00
2022-09-14T12:21:14.527Z,19.83
2022-09-14T12:23:40.945Z,18.45
2022-09-14T12:26:07.217Z,17.98
2022-09-14T12:28:33.514Z,18.05
2022-09-14T12:30:59.934Z,18.77
2022-09-14T12:33:26.281Z,18.45
2022-09-14T12:35:52.560Z,18.33
2022-09-14T12:38:19.162Z,17.75
2022-09-14T12:40:45.733Z,18.65
2022-09-14T12:43:12.170Z,18.02
2022-09-14T12:45:38.528Z,17.70
2022-09-14T12:48:04.812Z,18.00
2022-09-14T12:50:31.364Z,102.88
2022-09-14T12:52:57.770Z,40.90
2022-09-14T12:55:24.801Z,23.33
2022-09-14T12:57:51.069Z,35.67
2022-09-14T13:00:17.385Z,45.88
2022-09-14T13:02:43.958Z,53.55
2022-09-14T13:05:10.386Z,55.45
2022-09-14T13:07:36.677Z,56.40
2022-09-14T13:10:03.264Z,54.15
2022-09-14T13:12:30.073Z,55.35
2022-09-14T13:14:56.441Z,54.60
2022-09-14T13:17:22.772Z,55.75
2022-09-14T13:19:49.084Z,55.97
2022-09-14T13:22:15.373Z,54.05
2022-09-14T13:24:41.666Z,52.75
2022-09-14T13:27:08.764Z,53.33
2022-09-14T13:29:35.150Z,52.90
2022-09-14T13:32:04.002Z,53.95
2022-09-14T13:34:31.368Z,52.90
2022-09-14T13:36:57.688Z,51.25
2022-09-14T13:39:23.983Z,50.85
2022-09-14T13:41:50.458Z,49.50
2022-09-14T13:44:16.810Z,52.17
2022-09-14T13:46:43.110Z,49.85
2022-09-14T13:49:09.544Z,49.17
2022-09-14T13:51:36.337Z,49.78
2022-09-14T13:54:02.639Z,48.65
2022-09-14T13:56:28.958Z,49.17
2022-09-14T13:58:55.244Z,45.80
2022-09-14T14:01:22.436Z,45.88
2022-09-14T14:03:49.097Z,46.28
2022-09-14T14:06:15.506Z,45.28
2022-09-14T14:08:41.937Z,46.00
2022-09-14T14:11:08.289Z,45.47
2022-09-14T14:13:34.643Z,44.13
2022-09-14T14:16:01.074Z,44.80
2022-09-14T14:18:27.428Z,43.47
2022-09-14T14:20:53.746Z,42.88
2022-09-14T14:23:20.075Z,45.00
2022-09-14T14:25:46.500Z,42.28
2022-09-14T14:28:12.952Z,44.05
2022-09-14T14:30:39.326Z,42.13
2022-09-14T14:33:05.821Z,41.58
2022-09-14T14:35:32.182Z,42.15
2022-09-14T14:37:58.533Z,41.42
2022-09-14T14:40:24.920Z,41.92
2022-09-14T14:42:51.360Z,40.72
2022-09-14T14:45:17.723Z,40.40
2022-09-14T14:47:44.097Z,40.92
2022-09-14T14:50:10.444Z,40.88
2022-09-14T14:52:36.836Z,38.15
2022-09-14T14:55:03.142Z,37.10
2022-09-14T14:57:29.623Z,38.72
2022-09-14T14:59:55.933Z,37.13
2022-09-14T15:02:22.350Z,34.90
2022-09-14T15:04:48.677Z,35.45
2022-09-14T15:07:15.160Z,34.38
2022-09-14T15:09:41.426Z,33.55
2022-09-14T15:12:07.945Z,34.75
2022-09-14T15:14:34.500Z,33.63
2022-09-14T15:17:00.841Z,32.50
2022-09-14T15:19:27.340Z,33.00
2022-09-14T15:21:57.293Z,31.65
2022-09-14T15:24:26.688Z,31.23
2022-09-14T15:26:53.105Z,31.08
2022-09-14T15:29:19.526Z,28.95
2022-09-14T15:31:46.119Z,28.70
2022-09-14T15:34:12.437Z,28.48
2022-09-14T15:36:38.745Z,27.80
2022-09-14T15:39:05.069Z,27.73
2022-09-14T15:41:31.344Z,27.23
2022-09-14T15:43:57.997Z,26.85
2022-09-14T15:46:24.337Z,26.00
2022-09-14T15:48:50.728Z,23.95
2022-09-14T15:51:16.997Z,22.58
2022-09-14T15:53:43.354Z,23.85
2022-09-14T15:56:09.610Z,24.00
2022-09-14T15:58:35.954Z,22.73
2022-09-14T16:01:03.089Z,22.35
2022-09-14T16:03:30.058Z,23.60
2022-09-14T16:05:56.406Z,20.73
2022-09-14T16:08:22.942Z,22.73
2022-09-14T16:10:49.270Z,19.52
2022-09-14T16:13:15.538Z,21.63
2022-09-14T16:15:41.961Z,22.45
2022-09-14T16:18:08.418Z,22.65
2022-09-14T16:20:35.701Z,21.58
2022-09-14T16:23:02.024Z,21.00
2022-09-14T16:25:28.319Z,20.83
2022-09-14T16:27:54.674Z,20.90
2022-09-14T16:30:21.020Z,20.38
2022-09-14T16:32:47.401Z,17.35
2022-09-14T16:35:13.881Z,18.80
2022-09-14T16:37:40.194Z,18.05
2022-09-14T16:40:06.691Z,16.83
2022-09-14T16:42:33.360Z,18.38
2022-09-14T16:44:59.714Z,17.88
2022-09-14T16:47:26.041Z,17.60
2022-09-14T16:49:52.316Z,17.70
2022-09-14T16:52:18.676Z,16.63
2022-09-14T16:54:45.195Z,15.68
2022-09-14T16:57:12.604Z,15.25
2022-09-14T16:59:38.982Z,14.07
2022-09-14T17:02:05.391Z,15.38
2022-09-14T17:04:31.752Z,10.70
2022-09-14T17:06:58.034Z,13.35
2022-09-14T17:09:24.381Z,12.63
2022-09-14T17:11:50.679Z,14.98
2022-09-14T17:14:17.068Z,13.52
2022-09-14T17:16:43.448Z,14.23
2022-09-14T17:19:09.936Z,13.93
2022-09-14T17:21:36.209Z,12.30
2022-09-14T17:24:02.646Z,12.25
2022-09-14T17:26:28.976Z,12.80
2022-09-14T17:28:55.982Z,14.07
2022-09-14T17:31:22.356Z,13.18
2022-09-14T17:33:49.020Z,12.43
2022-09-14T17:36:15.420Z,12.68
2022-09-14T17:38:41.706Z,12.88
2022-09-14T17:41:07.964Z,12.85
2022-09-14T17:43:34.874Z,12.25
2022-09-14T17:46:01.193Z,12.38
2022-09-14T17:48:27.630Z,12.73
2022-09-14T17:50:54.141Z,12.13
2022-09-14T17:53:20.509Z,11.40
2022-09-14T17:55:46.740Z,10.93
2022-09-14T17:58:16.451Z,11.70
2022-09-14T18:00:47.463Z,11.73
2022-09-14T18:03:13.860Z,11.60
2022-09-14T18:05:40.283Z,12.60
2022-09-14T18:08:06.592Z,11.40
2022-09-14T18:10:32.888Z,12.65
2022-09-14T18:12:59.731Z,11.38
2022-09-14T18:15:26.100Z,11.18
2022-09-14T18:17:52.531Z,10.52
2022-09-14T18:20:18.844Z,11.40
2022-09-14T18:22:45.483Z,10.52
2022-09-14T18:25:11.768Z,10.82
2022-09-14T18:27:38.413Z,11.55
2022-09-14T18:30:04.705Z,10.82
2022-09-14T18:32:34.657Z,10.77
2022-09-14T18:35:01.608Z,11.30
2022-09-14T18:37:27.958Z,11.45
2022-09-14T18:39:54.476Z,11.00
2022-09-14T18:42:20.786Z,10.73
2022-09-14T18:44:47.406Z,10.98
2022-09-14T18:47:13.851Z,9.98
2022-09-14T18:49:40.906Z,10.65
2022-09-14T18:52:07.243Z,10.05
2022-09-14T18:54:33.551Z,10.40
2022-09-14T18:56:59.830Z,10.68
2022-09-14T18:59:26.127Z,10.82
2022-09-14T19:01:52.713Z,10.93
2022-09-14T19:04:19.348Z,9.93
2022-09-14T19:06:45.712Z,10.15
2022-09-14T19:09:12.009Z,10.18
2022-09-14T19:11:38.553Z,9.98
2022-09-14T19:14:04.983Z,9.50
2022-09-14T19:16:31.591Z,9.50
2022-09-14T19:18:57.963Z,10.00
2022-09-14T19:21:24.437Z,9.88
2022-09-14T19:23:50.836Z,10.05
2022-09-14T19:26:17.244Z,9.82
2022-09-14T19:28:43.682Z,9.32
2022-09-14T19:31:10.116Z,9.40
2022-09-14T19:33:36.524Z,10.02
2022-09-14T19:36:02.878Z,9.68
2022-09-14T19:38:29.217Z,9.45
2022-09-14T19:40:55.488Z,9.32
2022-09-14T19:43:21.853Z,9.57
2022-09-14T19:45:48.253Z,9.23
2022-09-14T19:48:14.768Z,9.15
2022-09-14T19:50:41.054Z,8.82
2022-09-14T19:53:07.444Z,9.02
2022-09-14T19:55:33.777Z,9.68
2022-09-14T19:58:00.608Z,9.35
2022-09-14T20:00:28.146Z,8.18
2022-09-14T20:02:54.473Z,8.63
2022-09-14T20:05:20.901Z,9.10
2022-09-14T20:07:47.411Z,9.63
2022-09-14T20:10:13.734Z,8.65
2022-09-14T20:12:40.090Z,8.25
2022-09-14T20:15:06.584Z,8.38
2022-09-14T20:17:32.988Z,8.90
2022-09-14T20:19:59.517Z,7.85
2022-09-14T20:22:25.932Z,8.57
2022-09-14T20:24:52.306Z,8.82
2022-09-14T20:27:18.745Z,8.32
2022-09-14T20:29:45.010Z,8.00
2022-09-14T20:32:11.457Z,8.68
2022-09-14T20:34:37.940Z,8.13
2022-09-14T20:37:04.928Z,8.20
2022-09-14T20:39:31.205Z,8.50
2022-09-14T20:41:57.650Z,7.60
2022-09-14T20:44:23.896Z,8.30
2022-09-14T20:46:50.535Z,8.18
2022-09-14T20:49:16.936Z,8.10
2022-09-14T20:51:43.286Z,7.85
2022-09-14T20:54:09.600Z,8.25
2022-09-14T20:56:35.858Z,7.95
2022-09-14T20:59:02.282Z,7.93
2022-09-14T21:01:28.650Z,7.93
2022-09-14T21:03:55.081Z,7.70
2022-09-14T21:06:21.418Z,8.32
2022-09-14T21:08:47.802Z,8.02
2022-09-14T21:11:14.213Z,7.18
2022-09-14T21:13:40.680Z,7.57
2022-09-14T21:16:06.997Z,7.18
2022-09-14T21:18:33.329Z,7.65
2022-09-14T21:21:02.801Z,7.22
2022-09-14T21:23:29.292Z,7.57
2022-09-14T21:25:55.636Z,7.57
2022-09-14T21:28:21.982Z,7.47
2022-09-14T21:30:48.444Z,7.55
2022-09-14T21:33:14.804Z,7.47
2022-09-14T21:35:41.092Z,7.82
2022-09-14T21:38:07.490Z,7.53
2022-09-14T21:40:33.858Z,6.88
2022-09-14T21:43:00.122Z,7.22
2022-09-14T21:45:26.610Z,6.85
2022-09-14T21:47:52.984Z,6.72
2022-09-14T21:50:20.087Z,6.70
2022-09-14T21:52:46.453Z,7.32
2022-09-14T21:55:12.900Z,6.95
2022-09-14T21:57:39.368Z,7.50
2022-09-14T22:00:05.640Z,7.35
2022-09-14T22:02:32.410Z,6.82
2022-09-14T22:04:59.030Z,6.63
2022-09-14T22:07:25.518Z,6.63
2022-09-14T22:09:51.881Z,6.68
2022-09-14T22:12:18.137Z,6.43
2022-09-14T22:14:44.460Z,6.47
2022-09-14T22:17:10.785Z,6.88
2022-09-14T22:19:37.426Z,5.93
2022-09-14T22:22:03.865Z,6.50
2022-09-14T22:24:34.893Z,6.45
2022-09-14T22:27:03.708Z,6.72
2022-09-14T22:29:30.103Z,6.72
2022-09-14T22:31:56.424Z,6.32
2022-09-14T22:34:22.737Z,7.03
2022-09-14T22:36:49.040Z,6.88
2022-09-14T22:39:15.293Z,6.68
2022-09-14T22:41:41.572Z,6.40
2022-09-14T22:44:07.907Z,6.30
2022-09-14T22:46:34.342Z,6.57
2022-09-14T22:49:00.649Z,5.90
2022-09-14T22:51:26.997Z,6.47
2022-09-14T22:53:53.268Z,6.47
2022-09-14T22:56:20.933Z,6.63
2022-09-14T22:58:47.254Z,6.05
2022-09-14T23:01:13.663Z,6.50
2022-09-14T23:03:39.961Z,5.78
2022-09-14T23:06:06.379Z,6.28
2022-09-14T23:08:32.745Z,5.90
2022-09-14T23:10:59.198Z,5.78
2022-09-14T23:13:25.547Z,5.85
2022-09-14T23:15:52.181Z,6.35
2022-09-14T23:18:18.570Z,5.55
2022-09-14T23:20:44.855Z,5.93
2022-09-14T23:23:11.728Z,5.97
2022-09-14T23:25:38.034Z,5.93
2022-09-14T23:28:04.504Z,6.63
2022-09-14T23:30:31.602Z,5.90
2022-09-14T23:32:57.961Z,5.55
2022-09-14T23:35:24.290Z,5.57
2022-09-14T23:37:50.562Z,5.30
2022-09-14T23:40:17.007Z,5.03
2022-09-14T23:42:43.406Z,5.63
2022-09-14T23:45:09.702Z,6.03
2022-09-14T23:47:35.960Z,5.72
2022-09-14T23:50:02.198Z,5.95
2022-09-14T23:52:28.528Z,5.78
2022-09-14T23:54:54.942Z,5.45
2022-09-14T23:57:21.262Z,5.72
2022-09-14T23:59:47.721Z,5.30
